»·PEaware :: UAL533 KGEG-KSEA

UAL533 :: KGEG-KSEA

FLIGHT INFORMATION

Flight Status: Arrived
Operator:
United Airlines
More flights by this operator :: More flights under this callsign
Pilot: Maximilliano F. (23467)
Aircraft: BOEING 737-800
(B738)
More flights by this aircraft type
Origin: KGEG Spokane Intl
United States
Destination: KSEA Seattle-Tacoma Intl
United States
More flights between these airports :: More routes between these airports
Route: TEMPL GLASR1
File this flight plan on PilotEdge
Remarks: RMK / SIMBRIEF
Altitude:
(Current/Filed)
32,000ft
Speed:
(Current/Filed)
456kts
Departed: 08-Oct-19 08:31 PM
Arrived: 08-Oct-19 09:10 PM
Distance/Time
Traveled:
194nm/0:39
Distance/Time
To Go:
Arrived

Flight Plot

Page will automatically refresh every two minutes.

Flight plan parsing failed; only flown route is shown


Map Options




Map Legend


Flown Route
Filed Route
Departure Airport
Arrival Airport
Navaid (VOR, NDB)
Fix

Horizontal Profiles

Position Reports

Time Latitude Longitude Heading Altitude Ground
Speed
08-Oct-19 20:09 47.624435 -117.535389 311 2391ft 0kts
08-Oct-19 20:10 47.624435 -117.535389 311 2391ft 0kts
08-Oct-19 20:11 47.624435 -117.535389 311 2391ft 0kts
08-Oct-19 20:12 47.624435 -117.535389 311 2391ft 0kts
08-Oct-19 20:13 47.624435 -117.535389 311 2391ft 0kts
08-Oct-19 20:14 47.624435 -117.535389 311 2391ft 0kts
08-Oct-19 20:15 47.624435 -117.535389 311 2391ft 0kts
08-Oct-19 20:16 47.624435 -117.535389 311 2391ft 0kts
08-Oct-19 20:17 47.624435 -117.535389 311 2391ft 0kts
08-Oct-19 20:18 47.624435 -117.535389 311 2391ft 0kts
08-Oct-19 20:19 47.624429 -117.535379 312 2391ft 1kts
08-Oct-19 20:20 47.623971 -117.534861 3 2391ft 2kts
08-Oct-19 20:21 47.623732 -117.535036 43 2391ft 0kts
08-Oct-19 20:22 47.623732 -117.535036 43 2391ft 0kts
08-Oct-19 20:23 47.624918 -117.533235 44 2391ft 9kts
08-Oct-19 20:24 47.624965 -117.532062 98 2390ft 10kts
08-Oct-19 20:25 47.627670 -117.527641 45 2391ft 19kts
08-Oct-19 20:26 47.631218 -117.522297 44 2391ft 19kts
08-Oct-19 20:27 47.632067 -117.519721 134 2391ft 6kts
08-Oct-19 20:28 47.631904 -117.519479 135 2391ft 0kts
08-Oct-19 20:29 47.631624 -117.519075 135 2391ft 7kts
08-Oct-19 20:30 47.626617 -117.525193 224 2391ft 114kts
08-Oct-19 20:31 47.592393 -117.577002 224 4372ft 203kts
08-Oct-19 20:32 47.545937 -117.650658 225 7015ft 265kts
08-Oct-19 20:33 47.504849 -117.743126 279 10333ft 285kts
08-Oct-19 20:34 47.525242 -117.863310 281 13149ft 327kts
08-Oct-19 20:35 47.543361 -117.999685 281 14006ft 338kts
08-Oct-19 20:36 47.561402 -118.136442 281 14007ft 338kts
08-Oct-19 20:37 47.579486 -118.274846 281 16848ft 352kts
08-Oct-19 20:38 47.598252 -118.419920 279 20204ft 367kts
08-Oct-19 20:39 47.617490 -118.570215 277 23354ft 378kts
08-Oct-19 20:40 47.636762 -118.722502 277 26240ft 388kts
08-Oct-19 20:41 47.656584 -118.881280 279 28888ft 398kts
08-Oct-19 20:42 47.676792 -119.044854 280 31414ft 406kts
08-Oct-19 20:43 47.697317 -119.212904 280 31988ft 418kts
08-Oct-19 20:44 47.717813 -119.382789 281 31988ft 419kts
08-Oct-19 20:45 47.735882 -119.554560 277 31982ft 422kts
08-Oct-19 20:46 47.749234 -119.727331 278 31983ft 424kts
08-Oct-19 20:47 47.762908 -119.901516 278 31993ft 426kts
08-Oct-19 20:48 47.776145 -120.076004 278 31996ft 425kts
08-Oct-19 20:49 47.789034 -120.252457 278 32030ft 428kts
08-Oct-19 20:50 47.801812 -120.427785 278 31662ft 430kts
08-Oct-19 20:51 47.814515 -120.603771 278 28644ft 418kts
08-Oct-19 20:52 47.825833 -120.764855 278 25977ft 398kts
08-Oct-19 20:53 47.836437 -120.923960 277 23367ft 378kts
08-Oct-19 20:54 47.846876 -121.079194 278 20894ft 383kts
08-Oct-19 20:55 47.857119 -121.235045 278 18377ft 365kts
08-Oct-19 20:56 47.866396 -121.381413 278 15857ft 346kts
08-Oct-19 20:57 47.875242 -121.520058 278 13572ft 328kts
08-Oct-19 20:58 47.880668 -121.647674 266 12257ft 293kts
08-Oct-19 20:59 47.847390 -121.755663 228 11049ft 300kts
08-Oct-19 21:00 47.786942 -121.838710 224 9452ft 286kts
08-Oct-19 21:01 47.729494 -121.917178 233 7842ft 275kts
08-Oct-19 21:02 47.692442 -122.013225 245 6246ft 263kts
08-Oct-19 21:03 47.659103 -122.106554 245 5114ft 237kts
08-Oct-19 21:04 47.629602 -122.189932 245 4906ft 223kts
08-Oct-19 21:05 47.601276 -122.271545 245 3729ft 210kts
08-Oct-19 21:06 47.554094 -122.306418 185 2646ft 184kts
08-Oct-19 21:07 47.505250 -122.307367 180 1286ft 172kts
08-Oct-19 21:08 47.460597 -122.307829 180 467ft 150kts
08-Oct-19 21:09 47.445865 -122.307046 91 434ft 0kts

Navigation Log

Ident Type
Flight plan parsing failed, navigation log unavailable